Time;durP1;ratioP1;P1;durP2;ratioP2;P2;SDS_P1;SDS_P2;PMS_P1;PMS_P2;Temp;Humidity;BMP_temperature;BMP_pressure;BME280_temperature;BME280_humidity;BME280_pressure;Samples;Min_cycle;Max_cycle;Signal;HPM_P1;HPM_P2
2024/03/24 00:00:42;;;;;;;2.13;2.03;;;4.40;99.90;;;5.19;100.00;97296.75;10399983;28;20319;-66
2024/03/24 00:05:44;;;;;;;2.63;2.17;;;4.60;99.90;;;5.12;100.00;97289.47;10386655;28;20322;-66
2024/03/24 00:10:48;;;;;;;2.27;2.17;;;4.50;99.90;;;5.04;100.00;97295.69;10385882;28;20309;-66
2024/03/24 00:15:50;;;;;;;2.10;2.00;;;4.50;99.90;;;5.05;100.00;97277.19;10403238;28;20717;-65
2024/03/24 00:20:53;;;;;;;2.00;1.90;;;4.40;99.90;;;5.15;100.00;97274.47;10403686;28;20463;-65
2024/03/24 00:25:56;;;;;;;2.23;1.93;;;4.50;99.90;;;5.15;100.00;97274.47;10385926;28;20320;-66
2024/03/24 00:30:58;;;;;;;2.27;2.17;;;4.50;99.90;;;5.25;100.00;97256.63;10388454;28;20316;-65
2024/03/24 00:36:00;;;;;;;2.97;2.20;;;4.50;99.90;;;5.07;100.00;97253.72;10387605;28;20377;-65
2024/03/24 00:41:04;;;;;;;3.93;2.10;;;4.50;99.90;;;5.00;100.00;97251.53;10370796;28;20300;-66
2024/03/24 00:46:06;;;;;;;2.60;2.40;;;4.40;99.90;;;4.86;100.00;97254.78;10384759;28;20350;-66
2024/03/24 00:51:08;;;;;;;2.97;2.00;;;4.30;99.90;;;4.76;100.00;97247.34;10387120;28;20311;-66
2024/03/24 00:56:12;;;;;;;2.70;2.50;;;4.20;99.90;;;4.86;100.00;97239.56;10382315;28;20346;-65
2024/03/24 01:01:14;;;;;;;2.50;2.40;;;4.20;99.90;;;4.77;100.00;97233.88;10402346;28;20308;-65
2024/03/24 01:06:16;;;;;;;2.20;2.00;;;4.20;99.90;;;4.58;100.00;97231.72;10386400;28;20339;-66
2024/03/24 01:11:19;;;;;;;3.97;2.40;;;4.10;99.90;;;4.44;100.00;97223.19;10402190;28;20317;-66
2024/03/24 01:16:21;;;;;;;4.53;2.43;;;3.90;99.90;;;4.36;100.00;97215.06;10385407;28;20677;-66
2024/03/24 01:21:23;;;;;;;2.33;2.00;;;3.90;99.90;;;4.34;100.00;97211.53;10402583;28;20705;-66
2024/03/24 01:26:27;;;;;;;2.67;2.20;;;3.90;99.90;;;4.36;100.00;97204.06;10399185;28;20393;-66
2024/03/24 01:31:29;;;;;;;4.23;2.43;;;3.90;99.90;;;4.37;100.00;97195.69;10401331;28;20332;-65
2024/03/24 01:36:31;;;;;;;2.30;2.03;;;3.90;99.90;;;4.57;100.00;97192.03;10385482;28;20762;-65
2024/03/24 01:41:34;;;;;;;2.77;2.53;;;4.00;99.90;;;4.55;100.00;97183.44;10384185;28;20346;-64
2024/03/24 01:46:37;;;;;;;2.80;2.30;;;4.00;99.90;;;4.53;100.00;97182.47;10399675;28;20320;-65
2024/03/24 01:51:39;;;;;;;2.73;2.50;;;4.00;99.90;;;4.62;100.00;97162.84;10383581;28;20783;-66
2024/03/24 01:56:44;;;;;;;2.10;2.00;;;4.10;99.90;;;4.65;100.00;97166.47;10383894;28;20774;-65
2024/03/24 02:01:46;;;;;;;2.10;2.00;;;4.10;99.90;;;5.03;100.00;97157.16;10383629;28;20312;-65
2024/03/24 02:06:49;;;;;;;2.50;2.30;;;4.30;99.90;;;4.92;100.00;97164.03;10381181;28;20312;-65
2024/03/24 02:11:52;;;;;;;2.53;2.33;;;4.30;99.90;;;4.80;100.00;97159.03;10384980;28;20801;-65
2024/03/24 02:16:54;;;;;;;2.47;2.13;;;4.30;99.90;;;5.03;100.00;97162.22;10380907;28;20253;-66
2024/03/24 02:21:57;;;;;;;2.20;2.10;;;4.40;99.90;;;5.01;100.00;97163.78;10382902;28;20779;-65
2024/03/24 02:27:00;;;;;;;3.20;2.40;;;4.40;99.90;;;5.01;100.00;97164.69;10383086;28;20720;-65
2024/03/24 02:32:02;;;;;;;2.50;2.30;;;4.40;99.90;;;5.12;100.00;97152.69;10381741;28;20321;-69
2024/03/24 02:37:05;;;;;;;2.83;2.10;;;4.40;99.90;;;4.91;100.00;97168.22;10384230;28;20344;-67
2024/03/24 02:42:08;;;;;;;2.30;2.20;;;4.40;99.90;;;4.81;100.00;97176.00;10386164;28;20320;-66
2024/03/24 02:47:10;;;;;;;2.10;2.00;;;4.30;99.90;;;4.60;100.00;97175.38;10385012;28;20814;-65
2024/03/24 02:52:12;;;;;;;2.60;2.40;;;4.10;99.90;;;4.57;100.00;97169.25;10382447;28;20790;-65
2024/03/24 02:57:16;;;;;;;2.77;2.37;;;4.00;99.90;;;4.56;100.00;97158.25;10383996;28;20733;-65
2024/03/24 03:02:18;;;;;;;2.17;2.07;;;3.90;99.90;;;4.57;100.00;97149.00;10398128;28;20268;-67
2024/03/24 03:07:20;;;;;;;2.30;2.20;;;3.90;99.90;;;4.51;100.00;97149.47;10384096;28;20384;-66
2024/03/24 03:12:23;;;;;;;4.03;1.90;;;3.90;99.90;;;4.48;100.00;97139.13;10381665;28;22611;-67
2024/03/24 03:17:26;;;;;;;2.10;2.00;;;3.90;99.90;;;4.47;100.00;97128.13;10382079;28;20316;-65
2024/03/24 03:22:28;;;;;;;1.97;1.87;;;3.90;99.90;;;4.56;100.00;97132.06;10380027;28;20320;-65
2024/03/24 03:27:31;;;;;;;2.10;2.00;;;3.90;99.90;;;4.49;100.00;97131.66;10398191;28;20644;-65
2024/03/24 03:32:33;;;;;;;2.60;1.87;;;3.90;99.90;;;4.48;100.00;97127.34;10380869;28;20256;-69
2024/03/24 03:37:35;;;;;;;1.87;1.57;;;3.90;99.90;;;4.46;100.00;97113.75;10381597;28;20311;-66
2024/03/24 03:42:39;;;;;;;1.87;1.77;;;3.90;99.90;;;4.50;100.00;97123.28;10382575;28;20340;-66
2024/03/24 03:47:41;;;;;;;2.50;2.30;;;3.90;99.90;;;4.48;100.00;97122.28;10381568;28;20313;-66
2024/03/24 03:52:47;;;;;;;2.03;1.93;;;3.90;99.90;;;4.58;100.00;97125.44;10379910;28;20360;-66
2024/03/24 03:57:51;;;;;;;2.20;2.10;;;4.00;99.90;;;4.69;100.00;97124.53;10399311;28;20376;-66
2024/03/24 04:02:53;;;;;;;2.33;2.23;;;4.00;99.90;;;4.71;100.00;97121.31;10378910;28;20313;-66
2024/03/24 04:07:55;;;;;;;2.23;2.03;;;4.00;99.90;;;4.76;100.00;97114.03;10381807;28;20357;-66
2024/03/24 04:12:58;;;;;;;2.60;2.40;;;4.10;99.90;;;4.68;100.00;97105.06;10379955;28;20344;-65
2024/03/24 04:18:00;;;;;;;2.50;2.30;;;4.10;99.90;;;4.65;100.00;97097.25;10398360;28;20361;-67
2024/03/24 04:23:02;;;;;;;2.40;2.20;;;4.10;99.90;;;4.65;100.00;97097.25;10381195;28;20311;-65
2024/03/24 04:28:06;;;;;;;2.37;2.20;;;4.10;99.90;;;4.69;100.00;97104.25;10382603;28;20320;-67
2024/03/24 04:33:08;;;;;;;3.50;2.47;;;4.10;99.90;;;4.72;100.00;97105.38;10397735;28;20332;-64
2024/03/24 04:38:10;;;;;;;2.80;2.60;;;4.10;99.90;;;4.74;100.00;97106.34;10388054;28;20316;-66
2024/03/24 04:43:15;;;;;;;2.67;2.37;;;4.10;99.90;;;4.78;100.00;97104.91;10389329;28;20308;-65
2024/03/24 04:48:17;;;;;;;3.03;2.43;;;4.00;99.90;;;4.83;100.00;97103.53;10387327;28;20312;-66
2024/03/24 04:53:19;;;;;;;2.47;2.37;;;4.10;99.90;;;4.79;100.00;97109.19;10389007;28;20719;-66
2024/03/24 04:58:23;;;;;;;2.70;2.50;;;4.10;99.90;;;4.73;100.00;97111.31;10388599;28;20366;-66
2024/03/24 05:03:25;;;;;;;2.87;2.63;;;4.10;99.90;;;4.89;100.00;97111.56;10381524;28;20368;-66
2024/03/24 05:08:28;;;;;;;2.40;2.30;;;4.10;99.90;;;4.86;100.00;97121.47;10380745;28;20307;-65
2024/03/24 05:13:32;;;;;;;4.10;3.70;;;4.10;99.90;;;4.88;100.00;97130.03;10383397;28;20312;-66
2024/03/24 05:18:36;;;;;;;3.40;2.87;;;4.10;99.90;;;4.92;100.00;97129.50;10392811;28;20603;-65
2024/03/24 05:23:38;;;;;;;2.10;2.00;;;4.10;99.90;;;4.80;100.00;97131.19;10380596;28;20669;-66
2024/03/24 05:28:42;;;;;;;2.27;2.07;;;4.10;99.90;;;4.67;100.00;97129.50;10379613;28;20320;-65
2024/03/24 05:33:45;;;;;;;2.33;2.23;;;4.00;99.90;;;4.62;100.00;97119.84;10393242;28;20227;-67
2024/03/24 05:38:47;;;;;;;2.17;2.07;;;3.90;99.90;;;4.58;100.00;97126.34;10391855;28;20601;-67
2024/03/24 05:43:50;;;;;;;2.20;2.10;;;3.90;99.90;;;4.56;100.00;97127.00;10388826;28;20284;-65
2024/03/24 05:48:52;;;;;;;2.60;2.40;;;4.00;99.90;;;4.62;100.00;97130.81;10369327;28;20299;-65
2024/03/24 05:53:54;;;;;;;2.50;2.40;;;3.90;99.90;;;4.77;100.00;97123.38;10373699;28;20310;-66
2024/03/24 05:58:58;;;;;;;2.37;2.27;;;4.00;99.90;;;4.63;100.00;97131.69;10372377;28;20619;-64
2024/03/24 06:04:02;;;;;;;2.07;1.97;;;4.00;99.90;;;4.51;100.00;97137.69;10382103;28;20237;-66
2024/03/24 06:09:04;;;;;;;2.87;2.67;;;4.00;99.90;;;4.67;100.00;97141.28;10345637;28;20309;-66
2024/03/24 06:14:08;;;;;;;2.67;2.40;;;4.00;99.90;;;4.75;100.00;97150.28;10329726;28;20357;-65
2024/03/24 06:19:10;;;;;;;2.40;2.30;;;4.00;99.90;;;4.78;100.00;97145.41;10373638;28;20313;-66
2024/03/24 06:24:12;;;;;;;2.67;2.00;;;4.10;99.90;;;4.84;100.00;97147.47;10398183;28;20316;-66
2024/03/24 06:29:15;;;;;;;2.23;2.13;;;4.10;99.90;;;4.68;100.00;97143.03;10375544;28;20638;-67
2024/03/24 06:34:18;;;;;;;2.10;2.00;;;4.00;99.90;;;4.86;100.00;97151.84;10375100;28;20236;-66
2024/03/24 06:39:20;;;;;;;2.40;2.30;;;4.20;99.90;;;4.94;100.00;97148.16;10374276;28;20348;-66
2024/03/24 06:44:24;;;;;;;2.57;2.30;;;4.20;99.90;;;4.85;100.00;97152.63;10374628;28;20240;-68
2024/03/24 06:49:26;;;;;;;2.20;2.10;;;4.20;99.90;;;5.14;100.00;97154.56;10373326;28;20240;-66
2024/03/24 06:54:28;;;;;;;3.00;2.27;;;4.50;99.90;;;5.34;100.00;97152.47;10373323;28;20226;-66
2024/03/24 06:59:31;;;;;;;2.60;2.40;;;4.60;99.90;;;5.98;100.00;97140.53;10375803;28;20324;-66
2024/03/24 07:04:36;;;;;;;3.20;2.90;;;5.20;99.90;;;6.48;100.00;97135.19;10389011;28;20356;-64
2024/03/24 07:09:38;;;;;;;3.47;3.23;;;5.60;99.90;;;6.25;100.00;97149.88;10404251;28;20364;-66
2024/03/24 07:14:42;;;;;;;3.90;3.60;;;5.50;99.90;;;5.95;100.00;97156.47;10404630;28;20253;-65
2024/03/24 07:19:44;;;;;;;4.37;3.80;;;5.20;99.90;;;5.79;100.00;97167.25;10395600;28;20740;-66
2024/03/24 07:24:46;;;;;;;3.87;3.20;;;5.10;99.90;;;5.77;100.00;97168.78;10392863;28;20303;-69
2024/03/24 07:29:50;;;;;;;2.10;1.90;;;5.00;99.90;;;5.65;100.00;97173.09;10393646;28;20253;-66
2024/03/24 07:34:52;;;;;;;3.03;2.83;;;5.00;99.90;;;5.79;100.00;97172.31;10409286;28;20291;-67
2024/03/24 07:39:55;;;;;;;2.53;2.43;;;5.10;99.90;;;5.76;100.00;97174.66;10387796;28;20795;-64
2024/03/24 07:44:58;;;;;;;2.73;2.53;;;5.00;99.90;;;5.82;100.00;97176.72;10376086;28;20233;-64
2024/03/24 07:50:00;;;;;;;2.30;2.20;;;5.00;99.90;;;5.80;100.00;97169.00;10387134;28;20313;-65
2024/03/24 07:55:03;;;;;;;5.17;2.37;;;5.00;99.90;;;5.78;100.00;97183.25;10384756;28;20316;-65
2024/03/24 08:00:09;;;;;;;3.57;3.27;;;5.10;99.90;;;5.82;100.00;97172.50;10382908;28;20305;-65
2024/03/24 08:05:12;;;;;;;2.93;2.73;;;5.10;99.90;;;5.74;99.59;97145.78;10374053;28;20232;-65
2024/03/24 08:10:14;;;;;;;4.13;2.90;;;5.10;99.90;;;6.32;100.00;97136.81;10373016;28;21022;-65
2024/03/24 08:15:18;;;;;;;3.33;2.20;;;5.80;99.90;;;7.18;96.90;97146.13;10377927;28;20239;-64
2024/03/24 08:20:20;;;;;;;2.60;2.40;;;6.90;99.90;;;7.89;92.35;97143.38;10392512;28;20484;-64
2024/03/24 08:25:22;;;;;;;3.13;2.83;;;7.80;99.90;;;8.38;88.98;97138.41;10392853;28;20236;-66
2024/03/24 08:30:26;;;;;;;2.40;2.20;;;8.30;99.90;;;8.83;85.24;97136.59;10378028;28;20748;-65
2024/03/24 08:35:29;;;;;;;1.80;1.70;;;8.60;99.90;;;9.31;83.79;97139.88;10375802;28;20238;-65
2024/03/24 08:40:31;;;;;;;2.03;1.80;;;9.10;99.90;;;9.24;80.03;97132.72;10381678;28;20321;-65
2024/03/24 08:45:36;;;;;;;1.70;1.60;;;8.80;99.90;;;9.18;79.03;97124.75;10381921;28;20419;-64
2024/03/24 08:50:38;;;;;;;1.83;1.73;;;8.70;99.90;;;8.97;80.42;97127.09;10385097;28;20328;-64
2024/03/24 08:55:40;;;;;;;2.33;2.13;;;8.20;99.90;;;8.79;78.98;97138.09;10411547;28;20250;-65
2024/03/24 09:00:45;;;;;;;2.23;2.13;;;7.90;99.90;;;8.42;76.53;97142.94;10397305;28;20376;-65
2024/03/24 09:05:47;;;;;;;2.30;2.10;;;7.70;99.90;;;8.31;75.63;97128.72;10416928;28;20698;-66
2024/03/24 09:10:49;;;;;;;2.50;2.30;;;7.50;99.90;;;8.02;73.70;97140.72;10397647;28;20695;-66
2024/03/24 09:15:52;;;;;;;3.10;2.30;;;7.40;99.90;;;7.83;75.49;97146.47;10397023;28;20252;-65
2024/03/24 09:20:56;;;;;;;3.30;2.50;;;7.20;99.90;;;7.91;74.09;97151.97;10413353;28;20233;-65
2024/03/24 09:25:58;;;;;;;2.20;2.10;;;7.20;99.90;;;8.07;72.83;97157.13;10413782;28;20325;-66
2024/03/24 09:31:03;;;;;;;2.30;2.10;;;7.30;99.90;;;7.91;75.81;97159.63;10396147;28;20252;-66
2024/03/24 09:36:06;;;;;;;2.10;2.00;;;7.20;99.90;;;8.15;75.50;97157.53;10399424;28;20257;-65
2024/03/24 09:41:08;;;;;;;2.43;2.23;;;7.40;99.90;;;8.21;73.95;97157.00;10395929;28;20277;-65
2024/03/24 09:46:13;;;;;;;2.70;2.50;;;7.40;99.90;;;8.10;74.26;97156.44;10398075;28;20273;-66
2024/03/24 09:51:16;;;;;;;2.73;2.53;;;7.20;99.90;;;8.08;75.52;97153.78;10394029;28;20253;-65
2024/03/24 09:56:21;;;;;;;2.80;2.50;;;7.10;99.90;;;8.04;76.00;97156.97;10396059;28;20260;-66
2024/03/24 10:01:25;;;;;;;4.47;2.63;;;7.10;99.90;;;8.01;74.42;97159.34;10411162;28;20744;-65
2024/03/24 10:06:28;;;;;;;4.13;2.57;;;7.30;99.90;;;8.06;74.29;97174.84;10413615;28;20265;-65
2024/03/24 10:11:33;;;;;;;3.93;2.37;;;7.10;99.90;;;7.95;71.40;97163.19;10413383;28;20855;-66
2024/03/24 10:16:36;;;;;;;4.23;3.07;;;7.00;99.90;;;7.81;72.37;97158.25;10412786;28;20626;-66
2024/03/24 10:21:39;;;;;;;3.63;3.33;;;6.90;99.90;;;7.52;72.63;97163.31;10396189;28;20725;-66
2024/03/24 10:26:41;;;;;;;3.40;2.90;;;6.90;99.90;;;7.56;74.36;97155.97;10411666;28;20260;-66
2024/03/24 10:31:46;;;;;;;3.80;3.33;;;6.70;99.90;;;7.42;76.99;97156.84;10394225;28;20256;-67
2024/03/24 10:36:48;;;;;;;3.63;3.13;;;6.70;99.90;;;7.48;75.79;97157.19;10411553;28;20249;-67
2024/03/24 10:41:54;;;;;;;4.30;2.73;;;6.70;99.90;;;7.48;75.12;97156.31;10412123;28;20724;-67
2024/03/24 10:46:58;;;;;;;3.57;3.23;;;6.70;99.90;;;7.48;74.85;97149.56;10392813;28;20253;-67
2024/03/24 10:52:00;;;;;;;3.93;3.43;;;6.80;99.90;;;7.42;76.11;97147.53;10389569;28;20758;-67
2024/03/24 10:57:05;;;;;;;3.73;3.03;;;6.60;99.90;;;7.46;75.55;97153.69;10390715;28;20245;-68
2024/03/24 11:02:17;;;;;;;4.17;3.10;;;6.70;99.90;;;7.66;74.39;97150.59;10390221;28;20694;-66
2024/03/24 11:07:20;;;;;;;3.20;2.60;;;6.80;99.90;;;7.48;73.46;97153.78;10383140;28;20312;-67
2024/03/24 11:12:22;;;;;;;3.67;2.97;;;6.70;99.90;;;7.50;74.30;97155.63;10399951;28;20320;-67
2024/03/24 11:17:26;;;;;;;4.70;2.90;;;6.90;99.90;;;7.26;75.38;97159.28;10388405;28;20272;-67
2024/03/24 11:22:36;;;;;;;3.20;2.90;;;6.70;99.90;;;7.24;73.85;97154.13;10383317;28;20308;-67
2024/03/24 11:27:39;;;;;;;3.93;3.27;;;6.60;99.90;;;7.26;73.66;97152.53;10373355;28;20237;-66
2024/03/24 11:32:53;;;;;;;2.97;2.77;;;6.60;99.90;;;7.33;74.38;97146.16;10388526;28;20336;-68
2024/03/24 11:37:57;;;;;;;4.23;3.30;;;6.60;99.90;;;7.32;71.93;97140.16;10375115;28;20371;-68
2024/03/24 11:43:01;;;;;;;3.53;3.03;;;6.80;99.90;;;7.31;73.57;97135.00;10379167;28;20317;-67
2024/03/24 11:48:32;;;;;;;3.27;2.97;;;6.70;99.90;;;7.50;72.69;97130.19;10389560;28;20731;-68
2024/03/24 11:53:35;;;;;;;3.27;2.90;;;6.80;99.90;;;7.58;74.22;97123.88;10373396;28;20221;-68
2024/03/24 11:58:38;;;;;;;3.30;2.97;;;6.90;99.90;;;7.51;75.90;97120.91;10370658;28;20318;-68
2024/03/24 12:03:42;;;;;;;3.87;2.97;;;6.80;99.90;;;7.53;76.14;97115.13;10391259;28;20233;-67
2024/03/24 12:08:48;;;;;;;3.97;3.40;;;6.70;99.90;;;7.34;79.96;97112.31;10390145;28;20229;-67
2024/03/24 12:13:51;;;;;;;4.87;3.13;;;6.60;99.90;;;7.48;78.39;97106.34;10374658;28;20340;-67
2024/03/24 12:18:55;;;;;;;3.33;3.00;;;6.80;99.90;;;7.33;78.65;97095.31;10389804;28;20348;-66
2024/03/24 12:23:58;;;;;;;3.80;3.10;;;6.70;99.90;;;7.41;78.63;97086.44;10387671;28;20251;-67
2024/03/24 12:29:00;;;;;;;3.80;3.37;;;6.70;99.90;;;7.45;79.39;97094.31;10387133;28;20238;-67
2024/03/24 12:34:04;;;;;;;4.73;3.10;;;6.70;99.90;;;7.24;81.46;97090.59;10373176;28;20308;-71
2024/03/24 12:39:07;;;;;;;4.60;3.20;;;6.70;99.90;;;7.00;85.97;97090.91;10375949;28;20317;-68
2024/03/24 12:44:09;;;;;;;3.60;3.30;;;6.40;99.90;;;6.98;85.21;97089.97;10377947;28;20321;-67
2024/03/24 12:49:16;;;;;;;4.10;3.20;;;6.20;99.90;;;6.75;88.68;97088.63;10370629;28;20614;-67
2024/03/24 12:54:19;;;;;;;6.00;5.10;;;6.20;99.90;;;6.62;90.05;97075.97;10399446;28;20758;-67
2024/03/24 12:59:22;;;;;;;4.20;3.80;;;6.10;99.90;;;6.57;91.61;97069.72;10405815;28;20229;-68
2024/03/24 13:04:25;;;;;;;4.33;3.77;;;6.00;99.90;;;6.59;90.91;97078.31;10398012;28;20669;-68
2024/03/24 13:09:29;;;;;;;4.03;3.27;;;6.10;99.90;;;6.41;90.91;97092.44;10389211;28;20237;-67
2024/03/24 13:14:32;;;;;;;4.10;3.10;;;6.10;99.90;;;6.12;93.96;97081.38;10377689;28;20662;-67
2024/03/24 13:19:50;;;;;;;4.57;3.60;;;5.80;99.90;;;6.14;95.12;97082.38;10384882;28;20304;-68
2024/03/24 13:24:56;;;;;;;5.40;3.70;;;5.60;99.90;;;6.05;96.39;97097.03;10375555;28;20687;-66
2024/03/24 13:29:58;;;;;;;4.00;3.70;;;5.60;99.90;;;5.99;98.54;97101.72;10393282;28;20226;-67
2024/03/24 13:35:03;;;;;;;4.27;3.87;;;5.50;99.90;;;6.03;99.82;97126.50;10373408;28;20604;-67
2024/03/24 13:40:15;;;;;;;5.83;5.00;;;5.50;99.90;;;5.88;100.00;97142.47;10374648;28;20222;-66
2024/03/24 13:45:25;;;;;;;5.23;4.27;;;5.40;99.90;;;5.52;100.00;97132.50;10380608;28;20723;-68
2024/03/24 13:50:29;;;;;;;6.53;5.77;;;5.20;99.90;;;5.47;100.00;97126.28;10380596;28;20320;-66
2024/03/24 13:55:32;;;;;;;5.50;4.90;;;5.10;99.90;;;5.56;100.00;97131.94;10386409;28;20695;-66
2024/03/24 14:00:34;;;;;;;6.90;4.43;;;5.20;99.90;;;5.53;100.00;97125.03;10403593;28;20329;-66
2024/03/24 14:05:38;;;;;;;4.53;4.23;;;5.20;99.90;;;5.74;100.00;97125.50;10404407;28;20313;-67
2024/03/24 14:10:40;;;;;;;4.53;3.50;;;5.40;99.90;;;6.11;100.00;97115.16;10401586;28;20340;-67
2024/03/24 14:15:56;;;;;;;3.70;3.40;;;5.70;99.90;;;6.50;100.00;97103.16;10386023;28;20979;-66
2024/03/24 14:21:07;;;;;;;3.60;3.00;;;6.20;99.90;;;7.01;100.00;97091.81;10399469;28;20312;-66
2024/03/24 14:26:09;;;;;;;4.13;3.60;;;6.70;99.90;;;7.10;100.00;97082.16;10389324;28;20286;-67
2024/03/24 14:31:12;;;;;;;3.00;2.80;;;6.80;99.90;;;7.29;99.16;97078.13;10374118;28;20287;-67
2024/03/24 14:36:40;;;;;;;3.90;3.27;;;6.90;99.90;;;7.44;97.48;97063.75;10391952;28;20352;-66
2024/03/24 14:41:58;;;;;;;3.00;2.53;;;7.10;99.90;;;7.41;92.10;97067.00;10409261;22;20327;-66
2024/03/24 14:47:23;;;;;;;2.60;2.40;;;7.10;99.90;;;7.40;92.86;97051.63;10391188;28;20239;-66
2024/03/24 14:52:27;;;;;;;3.13;2.83;;;7.00;99.90;;;7.22;92.70;97051.50;10349092;28;20240;-66
2024/03/24 14:57:29;;;;;;;4.13;3.73;;;6.90;99.90;;;7.52;96.52;97067.56;10348871;28;20283;-66
2024/03/24 15:02:32;;;;;;;3.53;2.50;;;7.20;99.90;;;7.66;92.19;97056.50;10367298;28;20257;-66
2024/03/24 15:07:35;;;;;;;3.47;2.73;;;7.30;99.90;;;7.86;90.68;97049.09;10365188;28;20733;-66
2024/03/24 15:12:38;;;;;;;2.90;2.70;;;7.50;99.90;;;7.78;88.41;97032.53;10358469;28;20799;-67
2024/03/24 15:17:40;;;;;;;7.03;4.83;;;7.40;99.90;;;7.73;89.55;97027.22;10350869;28;20259;-67
2024/03/24 15:22:44;;;;;;;3.90;3.07;;;7.30;99.90;;;7.74;88.84;97018.78;10350343;28;20222;-67
2024/03/24 15:27:46;;;;;;;3.07;2.60;;;7.30;99.90;;;7.90;86.83;97026.44;10347728;28;20246;-67
2024/03/24 15:32:48;;;;;;;4.93;3.40;;;7.40;99.90;;;8.07;88.71;97027.34;10351364;28;20213;-69
2024/03/24 15:37:54;;;;;;;4.77;3.10;;;7.60;99.90;;;8.04;89.63;97023.75;10335345;28;20699;-69
2024/03/24 15:42:56;;;;;;;2.67;2.43;;;7.50;99.90;;;8.07;87.27;97040.06;10367481;28;21076;-66
2024/03/24 15:47:58;;;;;;;4.47;3.20;;;7.60;99.90;;;8.05;88.06;97049.28;10350778;28;20943;-67
2024/03/24 15:53:02;;;;;;;2.50;2.30;;;7.50;99.90;;;7.70;88.73;97038.84;10349507;28;20236;-67
2024/03/24 15:58:17;;;;;;;3.33;2.40;;;7.30;99.90;;;7.53;91.08;97040.50;10342349;28;20234;-67
2024/03/24 16:03:19;;;;;;;3.80;2.60;;;7.00;99.90;;;7.46;90.92;97044.34;10352908;28;20697;-67
2024/03/24 16:08:23;;;;;;;2.07;1.90;;;6.80;99.90;;;7.16;88.91;97020.66;10330853;28;20641;-67
2024/03/24 16:13:37;;;;;;;2.10;2.00;;;6.80;99.90;;;7.09;89.25;97042.28;10357265;28;20324;-69
2024/03/24 16:18:39;;;;;;;2.30;2.10;;;6.70;99.90;;;7.17;89.14;97040.19;10366449;28;20312;-69
2024/03/24 16:23:43;;;;;;;2.40;2.20;;;6.80;99.90;;;7.21;88.06;97044.63;10345416;28;20218;-69
2024/03/24 16:28:45;;;;;;;1.70;1.60;;;6.70;99.90;;;7.16;87.66;97051.16;10344914;28;20240;-68
2024/03/24 16:33:47;;;;;;;2.60;2.40;;;6.70;99.90;;;7.01;88.31;97046.06;10363587;28;20731;-67
2024/03/24 16:38:50;;;;;;;3.50;2.30;;;6.70;99.90;;;6.84;88.59;97054.34;10360873;28;20508;-67
2024/03/24 16:43:54;;;;;;;5.37;4.87;;;6.50;99.90;;;6.81;89.20;97051.63;10372654;28;20321;-67
2024/03/24 16:48:56;;;;;;;2.77;2.53;;;6.40;99.90;;;6.88;89.44;97049.56;10361552;28;20248;-67
2024/03/24 16:53:59;;;;;;;3.20;2.83;;;6.30;99.90;;;6.81;88.81;97050.00;10362750;28;20221;-67
2024/03/24 16:59:01;;;;;;;3.97;3.47;;;6.30;99.90;;;6.82;89.77;97050.88;10353290;28;20255;-67
2024/03/24 17:04:04;;;;;;;3.07;2.87;;;6.20;99.90;;;6.82;89.72;97055.94;10350328;28;20241;-68
2024/03/24 17:09:09;;;;;;;3.07;2.90;;;6.10;99.90;;;6.82;89.41;97053.41;10326010;28;20639;-67
2024/03/24 17:14:12;;;;;;;2.97;2.77;;;6.10;99.90;;;6.76;89.55;97069.16;10379248;28;20305;-68
2024/03/24 17:19:16;;;;;;;2.97;2.77;;;6.10;99.90;;;6.70;90.29;97063.72;10381866;28;20333;-68
2024/03/24 17:24:22;;;;;;;3.50;2.33;;;6.00;99.90;;;6.76;89.44;97064.97;10363510;28;20764;-68
2024/03/24 17:29:24;;;;;;;3.10;2.80;;;6.10;99.90;;;6.70;89.63;97064.59;10373765;28;20770;-68
2024/03/24 17:34:26;;;;;;;4.33;2.77;;;6.00;99.90;;;6.61;89.27;97064.06;10367565;28;20364;-68
2024/03/24 17:39:30;;;;;;;2.87;2.50;;;6.10;99.90;;;6.48;91.39;97077.69;10380750;28;20313;-67
2024/03/24 17:44:34;;;;;;;2.67;2.47;;;6.00;99.90;;;6.44;94.78;97093.53;10382734;28;20800;-68
2024/03/24 17:49:36;;;;;;;3.40;2.77;;;5.80;99.90;;;6.23;96.43;97095.59;10356146;28;20243;-67
2024/03/24 17:54:40;;;;;;;3.20;2.77;;;5.70;99.90;;;6.22;97.97;97109.09;10356375;28;20357;-67
2024/03/24 17:59:42;;;;;;;4.93;2.70;;;5.60;99.90;;;6.01;98.93;97117.91;10356225;28;20450;-68
2024/03/24 18:04:44;;;;;;;3.57;3.20;;;5.40;99.90;;;5.69;100.00;97119.25;10349209;28;20233;-68
2024/03/24 18:15:08;;;;;;;3.93;3.50;;;5.00;99.90;;;5.44;100.00;97111.75;10358287;28;20676;-68
2024/03/24 18:20:13;;;;;;;3.37;3.07;;;4.80;99.90;;;5.32;100.00;97104.25;10370254;28;20725;-68
2024/03/24 18:25:17;;;;;;;3.80;3.43;;;4.60;99.90;;;5.29;100.00;97101.50;10373396;28;20661;-67
2024/03/24 18:30:21;;;;;;;3.37;3.03;;;4.60;99.90;;;5.13;100.00;97106.34;10347958;28;20236;-68
2024/03/24 18:35:23;;;;;;;3.57;3.27;;;4.50;99.90;;;4.96;100.00;97105.25;10347685;28;20302;-67
2024/03/24 18:40:26;;;;;;;3.73;3.43;;;4.40;99.90;;;5.11;100.00;97103.72;10349802;28;20746;-67
2024/03/24 18:45:29;;;;;;;4.43;4.00;;;4.50;99.90;;;5.17;100.00;97111.72;10365989;28;20700;-67
2024/03/24 18:50:31;;;;;;;4.00;3.60;;;4.60;99.90;;;5.17;100.00;97115.91;10386629;28;20780;-67
2024/03/24 18:55:35;;;;;;;5.10;4.60;;;4.50;99.90;;;5.09;100.00;97122.09;10353636;28;20588;-67
2024/03/24 19:00:37;;;;;;;5.77;5.27;;;4.50;99.90;;;5.06;100.00;97132.03;10357326;28;20244;-67
2024/03/24 19:05:40;;;;;;;5.03;3.70;;;4.50;99.90;;;5.04;100.00;97139.56;10363691;28;20233;-67
2024/03/24 19:10:44;;;;;;;4.97;4.33;;;4.50;99.90;;;5.08;100.00;97133.91;10358729;28;20233;-67
2024/03/24 19:15:46;;;;;;;8.07;7.27;;;4.40;99.90;;;5.09;100.00;97134.78;10393301;28;20336;-67
2024/03/24 19:20:49;;;;;;;18.30;10.87;;;4.40;99.90;;;5.15;100.00;97146.22;10378687;28;20340;-67
2024/03/24 19:25:53;;;;;;;14.03;10.97;;;4.50;99.90;;;5.05;100.00;97153.09;10364219;28;20777;-67
2024/03/24 19:30:55;;;;;;;14.10;10.33;;;4.50;99.90;;;5.10;100.00;97157.69;10358444;28;20642;-67
2024/03/24 19:35:57;;;;;;;14.40;10.60;;;4.50;99.90;;;4.97;100.00;97158.50;10355041;28;20245;-67
2024/03/24 19:41:01;;;;;;;57.90;30.23;;;4.50;99.90;;;5.12;100.00;97167.91;10351739;28;20225;-67
2024/03/24 19:46:03;;;;;;;60.27;20.90;;;4.50;99.90;;;5.23;100.00;97172.03;10374497;28;20328;-68
2024/03/24 19:51:07;;;;;;;32.10;14.57;;;4.50;99.90;;;5.19;100.00;97162.47;10382103;28;20326;-67
2024/03/24 19:56:10;;;;;;;5.87;5.27;;;4.60;99.90;;;5.03;100.00;97168.16;10351570;28;20820;-67
2024/03/24 20:01:13;;;;;;;7.07;6.33;;;4.60;99.90;;;4.96;100.00;97169.41;10345862;28;20286;-67
2024/03/24 20:06:15;;;;;;;12.40;8.53;;;4.50;99.90;;;5.28;100.00;97170.69;10366245;28;20233;-68
2024/03/24 20:11:18;;;;;;;13.03;10.07;;;4.60;99.90;;;5.29;100.00;97174.09;10368458;28;20229;-67
2024/03/24 20:16:21;;;;;;;14.50;8.87;;;4.70;99.90;;;5.32;100.00;97167.59;10365435;28;20650;-67
2024/03/24 20:21:23;;;;;;;19.50;10.50;;;4.70;99.90;;;5.43;99.94;97170.81;10373892;28;20420;-67
2024/03/24 20:26:26;;;;;;;18.30;9.67;;;4.70;99.90;;;5.36;100.00;97169.53;10381957;28;20791;-67
2024/03/24 20:31:28;;;;;;;11.53;7.97;;;4.70;99.90;;;5.45;98.55;97184.47;10356058;28;20225;-67
2024/03/24 20:36:31;;;;;;;16.20;10.23;;;4.80;99.90;;;5.25;99.60;97185.69;10371443;28;20567;-67
2024/03/24 20:41:34;;;;;;;7.03;5.90;;;4.70;99.90;;;5.15;100.00;97189.28;10404475;22;20324;-65
2024/03/24 20:46:37;;;;;;;6.07;5.50;;;4.60;99.90;;;5.15;100.00;97184.22;10413007;28;20332;-65
2024/03/24 20:51:39;;;;;;;4.43;4.13;;;4.60;99.90;;;5.18;100.00;97181.00;10412732;28;20233;-66
2024/03/24 20:56:42;;;;;;;5.53;4.67;;;4.60;99.90;;;5.36;98.63;97187.28;10433243;28;22144;-66
2024/03/24 21:01:44;;;;;;;4.37;3.87;;;4.70;99.90;;;4.99;99.87;97178.00;10452989;28;20792;-67
2024/03/24 21:06:47;;;;;;;4.50;4.10;;;4.50;99.90;;;5.15;99.46;97178.22;10387887;28;20744;-66
2024/03/24 21:11:51;;;;;;;4.90;3.70;;;4.60;99.90;;;5.12;100.00;97175.50;10395014;28;20321;-65
2024/03/24 21:16:53;;;;;;;4.83;4.20;;;4.60;99.90;;;5.20;100.00;97176.88;10408293;28;20804;-66
2024/03/24 21:21:55;;;;;;;5.63;4.77;;;4.60;99.90;;;5.51;97.89;97166.25;10404434;28;20684;-66
2024/03/24 21:26:59;;;;;;;6.20;4.30;;;4.70;99.90;;;5.48;97.75;97174.53;10382017;28;20217;-66